Toll Gate Heights, Indiana
Current Conditions -  °F | °C
As of 5:15 PM on Thursday 18 Dec 2014 (Local Time) from KHHG Reporting Station
Overcast Overcast  
Wind Chill: 26°   Ceiling: 7500
Heat Index: 26°   Visibility: 10mi
Dew Point: 22°   Wind: 0mph
Humidity: 82%   Direction: NA
Pressure: 30.21"   Gusts: NA
Location:  40.7175°N, 85.1549°W
Report Text: KHHG 182215Z AUTO 00000KT 10SM SCT017 OVC075 M03/M06 A3021 RMK AO2 T10311058
Loading
Personal Weather Stations






























Interactive Weather Map New forecast layout! Learn more

10-Day Weather Forecast

Advertisements
Track Severe Weather on mobile